Time;durP1;ratioP1;P1;durP2;ratioP2;P2;SDS_P1;SDS_P2;PMS_P1;PMS_P2;Temp;Humidity;BMP_temperature;BMP_pressure;BME280_temperature;BME280_humidity;BME280_pressure;Samples;Min_cycle;Max_cycle;Signal;HPM_P1;HPM_P2
2023/03/22 00:01:20;;;;;;;;;;;12.70;82.40;;;12.04;64.85;100050.56;5067239;28;20392;-76
2023/03/22 00:03:48;;;;;;;;;;;12.70;82.30;;;12.04;65.00;100052.44;5063841;28;20014;-74
2023/03/22 00:06:16;;;;;;;;;;;12.70;82.50;;;12.04;65.09;100050.56;5082672;22;19920;-73
2023/03/22 00:08:44;;;;;;;;;;;12.70;82.70;;;12.03;64.86;100046.28;5069872;28;19928;-73
2023/03/22 00:11:12;;;;;;;;;;;12.80;82.40;;;12.04;64.91;100047.09;5070476;28;19935;-73
2023/03/22 00:13:41;;;;;;;;;;;12.70;82.50;;;12.02;65.07;100042.00;5058654;28;20629;-74
2023/03/22 00:16:09;;;;;;;;;;;12.70;82.50;;;12.03;65.07;100040.94;5050942;28;19925;-76
2023/03/22 00:18:36;;;;;;;;;;;12.70;82.50;;;12.03;64.49;100035.59;5036418;28;19967;-76
2023/03/22 00:21:03;;;;;;;;;;;12.70;81.80;;;12.03;64.47;100040.94;5033567;28;19929;-73
2023/03/22 00:23:31;;;;;;;;;;;12.70;81.80;;;12.04;64.74;100039.88;5047978;28;19929;-75
2023/03/22 00:25:59;;;;;;;;;;;12.80;82.20;;;12.04;64.83;100036.41;5042721;28;19932;-73
2023/03/22 00:28:26;;;;;;;;;;;12.70;82.30;;;12.05;64.74;100028.19;5047584;28;20316;-74
2023/03/22 00:30:54;;;;;;;;;;;12.80;82.30;;;12.07;64.58;100025.25;5025021;28;19925;-74
2023/03/22 00:33:22;;;;;;;;;;;12.80;82.20;;;12.08;64.37;100029.56;5039499;28;19968;-74
2023/03/22 00:35:50;;;;;;;;;;;12.70;81.80;;;12.08;64.37;100024.22;5020020;28;19944;-73
2023/03/22 00:38:17;;;;;;;;;;;12.80;82.00;;;12.09;64.54;100028.50;5043483;28;20309;-75
2023/03/22 00:40:44;;;;;;;;;;;12.80;82.00;;;12.09;64.56;100023.97;5032009;28;19921;-73
2023/03/22 00:43:13;;;;;;;;;;;12.80;82.10;;;12.10;64.47;100022.09;5030979;28;20006;-76
2023/03/22 00:45:40;;;;;;;;;;;12.70;81.90;;;12.08;64.29;100014.31;5042050;28;19924;-74
2023/03/22 00:48:08;;;;;;;;;;;12.80;81.60;;;12.07;63.77;100007.34;5041841;28;20399;-75
2023/03/22 00:50:36;;;;;;;;;;;12.70;81.50;;;12.08;64.14;100013.50;5013015;28;19921;-73
2023/03/22 00:53:03;;;;;;;;;;;12.70;81.60;;;12.07;64.38;100010.03;5033130;28;20512;-74
2023/03/22 00:55:30;;;;;;;;;;;12.80;82.00;;;12.07;64.17;100006.56;5042067;28;19928;-74
2023/03/22 00:57:58;;;;;;;;;;;12.70;81.60;;;12.05;64.21;100003.28;5029996;28;20023;-73
2023/03/22 01:00:26;;;;;;;;;;;12.70;81.60;;;12.04;64.46;99996.31;5040208;28;20028;-73
2023/03/22 01:02:58;;;;;;;;;;;12.70;82.10;;;12.02;64.55;99990.41;5021370;28;20015;-72
2023/03/22 01:05:27;;;;;;;;;;;12.70;81.90;;;12.01;64.82;99986.91;5030140;28;19928;-74
2023/03/22 01:07:55;;;;;;;;;;;12.70;82.20;;;12.00;64.88;99987.94;5030697;28;19967;-74
2023/03/22 01:10:22;;;;;;;;;;;12.70;82.30;;;11.99;64.69;99988.19;5034366;28;19921;-77
2023/03/22 01:12:50;;;;;;;;;;;12.60;81.80;;;11.97;64.47;99985.75;5044077;28;19929;-73
2023/03/22 01:15:17;;;;;;;;;;;12.70;82.10;;;11.98;64.50;99982.03;5038664;28;19982;-72
2023/03/22 01:17:45;;;;;;;;;;;12.70;82.20;;;11.98;64.96;99984.69;5038831;28;20373;-73
2023/03/22 01:20:13;;;;;;;;;;;12.70;82.30;;;11.98;64.82;99975.88;5048735;28;19931;-74
2023/03/22 01:22:40;;;;;;;;;;;12.70;82.50;;;11.97;64.78;99974.25;5024791;28;20007;-75
2023/03/22 01:25:08;;;;;;;;;;;12.70;82.40;;;11.97;64.87;99969.72;5024875;28;19928;-75
2023/03/22 01:27:35;;;;;;;;;;;12.70;82.50;;;11.98;64.81;99971.34;5042901;28;19921;-72
2023/03/22 01:30:02;;;;;;;;;;;12.70;82.30;;;11.98;65.15;99973.19;5030654;28;19924;-74
2023/03/22 01:32:29;;;;;;;;;;;12.70;82.70;;;11.97;64.88;99972.38;5027260;28;19931;-75
2023/03/22 01:34:58;;;;;;;;;;;12.60;82.40;;;11.96;65.08;99964.59;5022987;28;19920;-73
2023/03/22 01:37:28;;;;;;;;;;;12.60;82.50;;;11.95;65.20;99965.63;5033370;28;19924;-74
2023/03/22 01:39:56;;;;;;;;;;;12.70;82.70;;;11.94;65.13;99951.47;5020151;28;19921;-76
2023/03/22 01:42:24;;;;;;;;;;;12.60;82.50;;;11.92;64.98;99955.44;5030368;28;19930;-76
2023/03/22 01:45:33;;;;;;;;;;;12.60;82.50;;;11.93;65.28;99949.84;5036994;28;19932;-74
2023/03/22 01:48:04;;;;;;;;;;;12.60;82.70;;;11.93;65.17;99941.00;5041174;28;19931;-74
2023/03/22 01:50:38;;;;;;;;;;;12.60;82.60;;;11.91;65.41;99941.25;5028201;28;19964;-76
2023/03/22 01:53:08;;;;;;;;;;;12.60;82.80;;;11.92;65.61;99939.41;5024948;28;20348;-73
2023/03/22 01:55:37;;;;;;;;;;;12.60;83.00;;;11.92;65.64;99936.72;5043429;28;20337;-73
2023/03/22 01:58:27;;;;;;;;;;;12.60;82.90;;;11.92;65.85;99929.50;5036406;28;20388;-73
2023/03/22 02:00:58;;;;;;;;;;;12.60;83.10;;;11.93;65.88;99919.63;5021728;28;19975;-71
2023/03/22 02:03:47;;;;;;;;;;;12.60;83.30;;;11.94;65.87;99926.59;5027774;28;19921;-76
2023/03/22 02:06:16;;;;;;;;;;;12.60;83.20;;;11.92;65.77;99913.47;5033132;28;20304;-75
2023/03/22 02:08:43;;;;;;;;;;;12.60;83.20;;;11.92;65.87;99912.66;5016208;28;19925;-72
2023/03/22 02:11:17;;;;;;;;;;;12.60;83.20;;;11.91;65.79;99916.38;5027444;28;19935;-75
2023/03/22 02:13:57;;;;;;;;;;;12.60;83.20;;;11.90;65.80;99915.56;5030877;28;20301;-74
2023/03/22 02:16:51;;;;;;;;;;;12.60;83.20;;;11.88;65.82;99911.50;5042334;28;20404;-73
2023/03/22 02:19:50;;;;;;;;;;;12.60;83.10;;;11.87;65.68;99916.03;5020937;28;19983;-74
2023/03/22 02:22:38;;;;;;;;;;;12.60;83.10;;;11.84;65.79;99908.47;5045590;28;20019;-74
2023/03/22 02:25:39;;;;;;;;;;;12.50;83.10;;;11.81;65.48;99895.56;5041263;28;19925;-74
2023/03/22 02:28:17;;;;;;;;;;;12.50;83.20;;;11.80;65.72;99894.72;5000474;28;20011;-74
2023/03/22 02:31:17;;;;;;;;;;;12.50;83.20;;;11.78;65.94;99893.34;5027171;28;20407;-74
2023/03/22 02:34:20;;;;;;;;;;;12.50;83.30;;;11.76;65.73;99896.28;5028061;28;19932;-73
2023/03/22 02:37:16;;;;;;;;;;;12.50;83.30;;;11.74;65.88;99887.66;5033034;28;19920;-74
2023/03/22 02:39:49;;;;;;;;;;;12.50;83.50;;;11.75;65.99;99885.78;5044621;28;20444;-75
2023/03/22 02:42:27;;;;;;;;;;;12.40;83.40;;;11.72;65.76;99881.75;5053262;28;19975;-74
2023/03/22 02:44:59;;;;;;;;;;;12.40;83.50;;;11.70;65.87;99878.47;5049285;28;19924;-72
2023/03/22 02:47:37;;;;;;;;;;;12.40;83.30;;;11.68;65.94;99874.44;5025420;28;19920;-73
2023/03/22 02:50:10;;;;;;;;;;;12.40;83.50;;;11.66;65.96;99874.66;5047297;28;20035;-73
2023/03/22 02:52:39;;;;;;;;;;;12.40;83.50;;;11.66;65.96;99874.66;5033208;28;19921;-75
2023/03/22 02:55:11;;;;;;;;;;;12.30;83.60;;;11.65;66.11;99870.34;5041005;28;19921;-74
2023/03/22 02:57:41;;;;;;;;;;;12.30;83.70;;;11.63;66.19;99864.44;5043536;28;20304;-74
2023/03/22 03:00:11;;;;;;;;;;;12.30;83.70;;;11.63;66.22;99867.13;5031128;28;19928;-74
2023/03/22 03:02:39;;;;;;;;;;;12.30;83.70;;;11.63;66.08;99864.44;5026589;28;20023;-77
2023/03/22 03:05:10;;;;;;;;;;;12.30;83.70;;;11.62;65.95;99860.16;5051612;28;19964;-73
2023/03/22 03:07:37;;;;;;;;;;;12.30;83.70;;;11.60;66.27;99860.38;5043631;28;19927;-73
2023/03/22 03:10:08;;;;;;;;;;;12.30;83.80;;;11.61;66.21;99861.19;5023323;28;20357;-72
2023/03/22 03:12:36;;;;;;;;;;;12.30;83.90;;;11.59;66.27;99861.41;5041575;28;19921;-74
2023/03/22 03:15:12;;;;;;;;;;;12.30;83.80;;;11.58;66.20;99857.13;5024148;28;20367;-74
2023/03/22 03:17:50;;;;;;;;;;;12.30;83.90;;;11.58;66.28;99865.13;5040675;28;19971;-73
2023/03/22 03:20:28;;;;;;;;;;;12.20;83.80;;;11.57;66.22;99860.84;5030796;28;19946;-74
2023/03/22 03:23:04;;;;;;;;;;;12.20;83.90;;;11.57;66.13;99860.03;5033130;28;19935;-73
2023/03/22 03:25:42;;;;;;;;;;;12.20;83.80;;;11.55;66.39;99856.78;5046670;28;19925;-74
2023/03/22 03:28:15;;;;;;;;;;;12.20;83.90;;;11.54;66.29;99855.16;5032808;28;19931;-76
2023/03/22 03:30:49;;;;;;;;;;;12.20;83.90;;;11.52;66.17;99852.72;5022697;28;19920;-74
2023/03/22 03:33:18;;;;;;;;;;;12.20;83.90;;;11.51;66.54;99850.25;5042080;28;19924;-73
2023/03/22 03:35:50;;;;;;;;;;;12.20;83.90;;;11.50;66.27;99851.31;5049340;28;19924;-73
2023/03/22 03:38:20;;;;;;;;;;;12.20;83.90;;;11.49;66.42;99847.84;5043298;28;19921;-74
2023/03/22 03:40:51;;;;;;;;;;;12.20;84.10;;;11.46;66.52;99844.81;5042092;28;20284;-73
2023/03/22 03:43:19;;;;;;;;;;;12.20;84.10;;;11.46;66.60;99839.47;5029377;28;19925;-73
2023/03/22 03:45:46;;;;;;;;;;;12.10;84.10;;;11.46;66.59;99840.28;5025243;28;20467;-75
2023/03/22 03:48:17;;;;;;;;;;;12.10;84.20;;;11.45;66.61;99833.31;5023258;28;19964;-74
2023/03/22 03:50:44;;;;;;;;;;;12.10;84.20;;;11.44;66.57;99831.69;5045793;28;20059;-74
2023/03/22 03:53:12;;;;;;;;;;;12.10;84.30;;;11.45;66.87;99827.16;5026560;28;19927;-74
2023/03/22 03:55:39;;;;;;;;;;;12.10;84.30;;;11.44;66.66;99828.22;5024384;28;19931;-73
2023/03/22 03:58:08;;;;;;;;;;;12.10;84.30;;;11.44;66.77;99830.88;5040691;28;19931;-74
2023/03/22 04:00:35;;;;;;;;;;;12.10;84.30;;;11.43;66.79;99834.63;5043342;28;19983;-74
2023/03/22 04:03:32;;;;;;;;;;;12.10;84.30;;;11.41;66.56;99842.03;5032307;28;19928;-75
2023/03/22 04:06:11;;;;;;;;;;;12.10;84.40;;;11.41;66.74;99829.47;5041947;28;19928;-74
2023/03/22 04:08:44;;;;;;;;;;;12.10;84.50;;;11.40;66.91;99832.41;5025225;28;19929;-76
2023/03/22 04:11:12;;;;;;;;;;;12.10;84.50;;;11.38;66.98;99829.16;5032527;28;20004;-72
2023/03/22 04:13:41;;;;;;;;;;;12.00;84.50;;;11.39;66.95;99842.28;5032572;28;19978;-73
2023/03/22 04:16:13;;;;;;;;;;;12.00;84.50;;;11.38;67.00;99832.63;5027202;28;20020;-72
2023/03/22 04:18:40;;;;;;;;;;;12.00;84.50;;;11.37;66.79;99831.03;5023687;28;19924;-73
2023/03/22 04:21:10;;;;;;;;;;;12.00;84.50;;;11.34;67.07;99826.94;5049128;28;20508;-75
2023/03/22 04:23:47;;;;;;;;;;;12.00;84.50;;;11.33;67.04;99822.66;5022758;28;20305;-72
2023/03/22 04:26:15;;;;;;;;;;;12.00;84.50;;;11.31;67.12;99822.06;5029002;28;19931;-72
2023/03/22 04:28:55;;;;;;;;;;;12.00;84.70;;;11.31;67.19;99824.72;5023987;28;19928;-73
2023/03/22 04:31:23;;;;;;;;;;;12.00;84.70;;;11.31;67.21;99819.38;5020001;28;20332;-73
2023/03/22 04:34:04;;;;;;;;;;;12.00;84.70;;;11.30;67.12;99814.28;5027252;28;19925;-72
2023/03/22 04:36:44;;;;;;;;;;;12.00;84.60;;;11.28;67.25;99813.72;5029995;28;20356;-76
2023/03/22 04:39:40;;;;;;;;;;;11.90;84.80;;;11.24;67.33;99810.69;4999160;28;19926;-72
2023/03/22 04:42:27;;;;;;;;;;;11.90;84.90;;;11.24;67.65;99818.69;5025342;28;19921;-73
2023/03/22 04:45:15;;;;;;;;;;;11.90;84.90;;;11.23;67.48;99819.75;5045575;28;19925;-73
2023/03/22 04:47:46;;;;;;;;;;;11.90;84.90;;;11.26;67.44;99813.13;5031481;28;19925;-74
2023/03/22 04:50:13;;;;;;;;;;;11.90;84.90;;;11.25;67.41;99798.97;5031443;28;19921;-74
2023/03/22 04:52:48;;;;;;;;;;;11.90;84.90;;;11.25;67.32;99801.63;5025586;28;19927;-73
2023/03/22 04:55:15;;;;;;;;;;;11.90;84.80;;;11.25;67.23;99809.63;5047443;28;19924;-74
2023/03/22 04:57:44;;;;;;;;;;;11.90;84.70;;;11.25;67.10;99817.66;5021682;28;19920;-73
2023/03/22 05:00:12;;;;;;;;;;;11.90;84.70;;;11.21;67.17;99821.81;5027231;28;19928;-76
2023/03/22 05:02:40;;;;;;;;;;;11.90;84.90;;;11.19;67.25;99823.91;5045869;28;19921;-75
2023/03/22 05:05:10;;;;;;;;;;;11.80;84.90;;;11.20;67.39;99825.53;5028587;28;19975;-73
2023/03/22 05:07:40;;;;;;;;;;;11.80;85.00;;;11.21;67.38;99821.00;5013563;28;19947;-76
2023/03/22 05:10:10;;;;;;;;;;;11.80;85.00;;;11.21;67.45;99813.81;5024330;28;19921;-72
2023/03/22 05:12:37;;;;;;;;;;;11.80;85.10;;;11.17;67.44;99815.31;5022021;28;19921;-73
2023/03/22 05:15:43;;;;;;;;;;;11.80;85.10;;;11.17;67.44;99812.66;5026915;28;19967;-77
2023/03/22 05:18:15;;;;;;;;;;;11.90;85.20;;;11.18;67.52;99816.16;5021963;28;19921;-75
2023/03/22 05:20:43;;;;;;;;;;;11.80;85.10;;;11.17;67.69;99817.97;5031568;28;19928;-73
2023/03/22 05:23:17;;;;;;;;;;;11.80;85.10;;;11.15;67.74;99813.94;5032039;28;19921;-74
2023/03/22 05:25:46;;;;;;;;;;;11.80;85.20;;;11.17;67.74;99820.66;5030474;28;20020;-76
2023/03/22 05:28:18;;;;;;;;;;;11.80;85.20;;;11.16;67.64;99808.34;5049936;28;19925;-75
2023/03/22 05:30:51;;;;;;;;;;;11.80;85.30;;;11.15;67.83;99817.41;5031896;28;19979;-75
2023/03/22 05:33:46;;;;;;;;;;;11.80;85.30;;;11.15;67.78;99809.41;5046236;28;19920;-74
2023/03/22 05:36:15;;;;;;;;;;;11.80;85.40;;;11.17;67.91;99812.66;5042101;28;20343;-75
2023/03/22 05:39:01;;;;;;;;;;;11.80;85.50;;;11.18;67.83;99808.97;5032034;28;19979;-74
2023/03/22 05:41:30;;;;;;;;;;;11.80;85.40;;;11.20;67.95;99800.72;5031239;28;20354;-74
2023/03/22 05:43:57;;;;;;;;;;;11.80;85.50;;;11.20;67.87;99806.84;5038271;28;19925;-75
2023/03/22 05:46:24;;;;;;;;;;;11.80;85.50;;;11.21;68.00;99808.47;5023897;28;20353;-75
2023/03/22 05:49:19;;;;;;;;;;;11.80;85.50;;;11.22;68.08;99796.75;5020205;28;20377;-74
2023/03/22 05:51:46;;;;;;;;;;;11.90;85.70;;;11.23;68.14;99809.06;5023911;28;19925;-74
2023/03/22 05:54:15;;;;;;;;;;;11.80;85.50;;;11.26;68.06;99808.59;5027967;28;19924;-77
2023/03/22 05:56:48;;;;;;;;;;;11.90;85.70;;;11.26;68.10;99805.91;5027210;28;19928;-75
2023/03/22 05:59:15;;;;;;;;;;;11.90;85.80;;;11.25;68.01;99816.84;5045514;28;19935;-74
2023/03/22 06:01:42;;;;;;;;;;;11.90;85.70;;;11.25;68.23;99801.63;5039215;28;20348;-77
2023/03/22 06:04:21;;;;;;;;;;;11.90;85.70;;;11.25;68.23;99800.81;5024249;28;20028;-74
2023/03/22 06:06:56;;;;;;;;;;;11.90;85.70;;;11.28;68.13;99809.19;5040691;22;20015;-76
2023/03/22 06:09:42;;;;;;;;;;;11.90;85.60;;;11.29;68.30;99796.66;5039268;28;19931;-75
2023/03/22 06:12:14;;;;;;;;;;;11.90;85.70;;;11.29;68.09;99794.78;5045485;28;19927;-75
2023/03/22 06:14:43;;;;;;;;;;;11.90;85.70;;;11.31;68.30;99800.69;5020751;28;19925;-75
2023/03/22 06:17:18;;;;;;;;;;;12.00;85.70;;;11.31;68.27;99790.03;5027925;28;19924;-76
2023/03/22 06:19:46;;;;;;;;;;;12.00;85.70;;;11.33;68.40;99798.63;5023799;28;19921;-76
2023/03/22 06:22:14;;;;;;;;;;;12.00;85.70;;;11.36;68.43;99797.34;5021655;28;20282;-76
2023/03/22 06:24:43;;;;;;;;;;;12.00;85.70;;;11.39;68.45;99799.56;5025912;28;19978;-75
2023/03/22 06:27:13;;;;;;;;;;;12.10;85.80;;;11.38;68.67;99805.94;5016699;28;19921;-75
2023/03/22 06:29:41;;;;;;;;;;;12.00;85.80;;;11.40;68.47;99806.50;5040401;28;19925;-76
2023/03/22 06:32:08;;;;;;;;;;;12.10;85.70;;;11.40;68.41;99811.03;5021802;28;19965;-76
2023/03/22 06:34:35;;;;;;;;;;;12.10;85.90;;;11.42;68.62;99815.13;5020335;28;20399;-76
2023/03/22 06:37:04;;;;;;;;;;;12.10;85.90;;;11.44;68.37;99807.66;5025328;28;19924;-75
2023/03/22 06:39:34;;;;;;;;;;;12.10;85.70;;;11.43;68.60;99806.06;5025109;28;19927;-75
2023/03/22 06:42:01;;;;;;;;;;;12.10;85.90;;;11.45;68.45;99795.94;5031173;28;19928;-75
2023/03/22 06:44:28;;;;;;;;;;;12.20;85.70;;;11.46;68.25;99789.53;5049372;28;20304;-75
2023/03/22 06:47:13;;;;;;;;;;;12.10;85.50;;;11.50;68.13;99792.56;5021384;28;19971;-75
2023/03/22 06:50:18;;;;;;;;;;;12.20;85.40;;;11.52;68.02;99788.63;4984555;28;19925;-77
2023/03/22 06:53:04;;;;;;;;;;;12.20;85.20;;;11.54;67.95;99789.19;4976114;28;20354;-76
2023/03/22 06:55:33;;;;;;;;;;;12.30;85.10;;;11.57;68.04;99796.75;5014533;28;19925;-75
2023/03/22 06:58:00;;;;;;;;;;;12.30;85.30;;;11.62;68.18;99796.06;5031201;28;19960;-77
2023/03/22 07:00:27;;;;;;;;;;;12.30;85.40;;;11.65;68.11;99789.41;5023346;28;19929;-74
2023/03/22 07:02:55;;;;;;;;;;;12.40;85.30;;;11.67;67.71;99792.69;5023079;28;19920;-78
2023/03/22 07:05:39;;;;;;;;;;;12.40;84.90;;;11.67;67.61;99788.16;5016216;28;20008;-76
2023/03/22 07:08:08;;;;;;;;;;;12.40;84.90;;;11.68;67.59;99781.75;5027016;28;19925;-75
2023/03/22 07:10:39;;;;;;;;;;;12.40;84.80;;;11.69;67.67;99796.72;5020843;28;19924;-76
2023/03/22 07:13:06;;;;;;;;;;;12.40;84.60;;;11.70;67.28;99779.66;5030374;28;19921;-75
2023/03/22 07:15:35;;;;;;;;;;;12.40;84.50;;;11.70;67.24;99781.50;5023872;28;19967;-75
2023/03/22 07:18:11;;;;;;;;;;;12.40;84.30;;;11.71;66.80;99775.94;5042849;28;19933;-76
2023/03/22 07:20:40;;;;;;;;;;;12.40;84.10;;;11.70;67.13;99765.47;5025963;28;20031;-75
2023/03/22 07:23:09;;;;;;;;;;;12.40;84.30;;;11.70;66.87;99778.84;5026558;28;20028;-76
2023/03/22 07:25:44;;;;;;;;;;;12.40;84.20;;;11.72;66.92;99766.88;5025927;28;19921;-76
2023/03/22 07:28:40;;;;;;;;;;;12.40;84.10;;;11.77;67.03;99769.66;5034201;28;19924;-75
2023/03/22 07:31:10;;;;;;;;;;;12.50;84.40;;;11.81;66.63;99770.00;5030063;28;19975;-74
2023/03/22 07:33:47;;;;;;;;;;;12.50;84.00;;;11.85;66.24;99765.81;5029478;28;19960;-74
2023/03/22 07:36:14;;;;;;;;;;;12.60;83.50;;;11.91;66.59;99767.56;5028124;28;19924;-76
2023/03/22 07:38:42;;;;;;;;;;;12.70;83.90;;;11.98;66.33;99770.91;5021953;28;19960;-77
2023/03/22 07:41:15;;;;;;;;;;;12.70;83.60;;;12.06;66.58;99761.72;5025482;28;20645;-76
2023/03/22 07:43:54;;;;;;;;;;;12.80;83.70;;;12.14;65.99;99768.50;5028808;28;19927;-75
2023/03/22 07:46:23;;;;;;;;;;;12.90;83.40;;;12.19;65.37;99758.72;5030308;28;19928;-76
2023/03/22 07:48:56;;;;;;;;;;;13.10;82.60;;;12.22;64.99;99765.47;5048671;28;19921;-75
2023/03/22 07:51:41;;;;;;;;;;;13.00;82.20;;;12.27;65.32;99761.03;5043159;28;19986;-75
2023/03/22 07:54:09;;;;;;;;;;;13.00;82.50;;;12.32;64.32;99752.28;5024528;28;19928;-76
2023/03/22 07:56:36;;;;;;;;;;;13.10;81.50;;;12.40;64.91;99769.81;5044305;28;19963;-77
2023/03/22 07:59:03;;;;;;;;;;;13.20;82.00;;;12.43;64.83;99764.78;5050134;28;20365;-76
2023/03/22 08:01:30;;;;;;;;;;;13.20;81.70;;;12.42;63.42;99762.34;5023617;28;19928;-76
2023/03/22 08:04:08;;;;;;;;;;;13.20;80.50;;;12.42;63.73;99765.03;5032467;28;20558;-75
2023/03/22 08:06:57;;;;;;;;;;;13.20;80.60;;;12.39;63.15;99766.31;5029364;28;19939;-77
2023/03/22 08:09:26;;;;;;;;;;;13.20;80.40;;;12.39;63.54;99766.31;5026295;28;19924;-77
2023/03/22 08:11:53;;;;;;;;;;;13.20;80.90;;;12.39;63.72;99771.66;5042209;28;19982;-76
2023/03/22 08:14:20;;;;;;;;;;;13.20;80.80;;;12.37;63.56;99771.91;5029614;28;19952;-75
2023/03/22 08:16:47;;;;;;;;;;;13.10;80.60;;;12.37;63.44;99768.41;5022850;28;19924;-76
2023/03/22 08:19:14;;;;;;;;;;;13.10;80.70;;;12.38;63.51;99768.16;5031081;28;19925;-78
2023/03/22 08:21:42;;;;;;;;;;;13.10;80.80;;;12.38;63.74;99772.72;5023985;28;19932;-75
2023/03/22 08:24:21;;;;;;;;;;;13.20;80.90;;;12.40;63.77;99775.97;5021780;28;19929;-76
2023/03/22 08:27:05;;;;;;;;;;;13.20;80.90;;;12.40;63.64;99773.28;5019167;28;19921;-77
2023/03/22 08:29:41;;;;;;;;;;;13.20;80.60;;;12.42;63.36;99773.06;5029259;28;19936;-76
2023/03/22 08:32:08;;;;;;;;;;;13.20;80.40;;;12.45;63.42;99768.03;5021406;28;19955;-76
2023/03/22 08:34:37;;;;;;;;;;;13.20;80.40;;;12.48;62.40;99775.56;5045163;28;20011;-75
2023/03/22 08:37:04;;;;;;;;;;;13.20;79.40;;;12.50;62.52;99770.81;5028996;28;19924;-76
2023/03/22 08:39:31;;;;;;;;;;;13.30;79.90;;;12.50;62.24;99776.16;5020379;28;19939;-76
2023/03/22 08:42:19;;;;;;;;;;;13.30;79.20;;;12.50;60.70;99784.19;5031286;28;19935;-76
2023/03/22 08:44:46;;;;;;;;;;;13.30;77.80;;;12.51;61.40;99784.97;5028621;28;19929;-77
2023/03/22 08:47:14;;;;;;;;;;;13.30;78.30;;;12.52;61.01;99775.91;5022610;28;19924;-77
2023/03/22 08:49:42;;;;;;;;;;;13.30;78.10;;;12.51;61.08;99779.63;5027079;28;20546;-76
2023/03/22 08:52:20;;;;;;;;;;;13.30;78.20;;;12.49;59.88;99781.72;5031653;28;19959;-75
2023/03/22 08:55:16;;;;;;;;;;;13.30;77.20;;;12.45;60.52;99777.94;5037000;28;20019;-75
2023/03/22 08:58:03;;;;;;;;;;;13.20;77.40;;;12.45;60.11;99764.56;5044577;28;20527;-76
2023/03/22 09:00:50;;;;;;;;;;;13.20;76.90;;;12.42;59.89;99773.84;5012823;28;20438;-76
2023/03/22 09:03:33;;;;;;;;;;;13.20;76.70;;;12.44;60.37;99777.09;5023643;28;19925;-76
2023/03/22 09:06:00;;;;;;;;;;;13.20;76.90;;;12.43;59.96;99767.44;5042955;28;19925;-75
2023/03/22 09:08:31;;;;;;;;;;;13.20;76.40;;;12.45;60.29;99768.03;5022308;28;20034;-76
2023/03/22 09:11:08;;;;;;;;;;;13.20;77.10;;;12.51;60.99;99771.59;5032414;28;19931;-76
2023/03/22 09:13:37;;;;;;;;;;;13.30;78.00;;;12.53;60.13;99775.66;5027066;28;20002;-77
2023/03/22 09:16:05;;;;;;;;;;;13.30;77.00;;;12.59;59.98;99768.53;5020026;28;19925;-75
2023/03/22 09:18:33;;;;;;;;;;;13.40;77.20;;;12.66;61.14;99758.50;5024279;28;19925;-77
2023/03/22 09:21:04;;;;;;;;;;;13.40;78.10;;;12.72;59.25;99756.72;5023992;28;19924;-75
2023/03/22 09:23:50;;;;;;;;;;;13.50;76.10;;;12.83;58.97;99772.69;5021107;28;19932;-76
2023/03/22 09:26:21;;;;;;;;;;;13.60;75.70;;;12.89;59.27;99761.00;5023217;28;20472;-77
2023/03/22 09:28:52;;;;;;;;;;;13.70;76.30;;;12.93;59.11;99758.63;5023553;28;20015;-77
2023/03/22 09:31:19;;;;;;;;;;;13.70;75.90;;;13.00;59.13;99758.50;5043614;28;19924;-76
2023/03/22 09:33:47;;;;;;;;;;;13.80;75.80;;;13.09;58.31;99759.72;5017020;28;19968;-75
2023/03/22 09:36:14;;;;;;;;;;;13.90;75.20;;;13.15;58.36;99758.72;5015802;28;19936;-76
2023/03/22 09:38:41;;;;;;;;;;;13.90;74.90;;;13.17;57.10;99759.28;5015210;28;19929;-78
2023/03/22 09:41:14;;;;;;;;;;;13.90;73.60;;;13.22;57.22;99751.34;5024130;28;19928;-76
2023/03/22 09:43:44;;;;;;;;;;;14.00;73.80;;;13.25;56.82;99748.19;5017302;28;19920;-76
2023/03/22 09:46:20;;;;;;;;;;;14.00;73.40;;;13.25;55.44;99745.50;5020132;28;19928;-77
2023/03/22 09:48:48;;;;;;;;;;;14.00;72.10;;;13.26;55.09;99760.50;5044698;28;19924;-77
2023/03/22 09:51:30;;;;;;;;;;;14.00;71.60;;;13.24;54.53;99756.47;5035060;28;19947;-76
2023/03/22 09:53:57;;;;;;;;;;;14.00;70.90;;;13.22;55.84;99754.03;5042761;28;20017;-78
2023/03/22 09:56:26;;;;;;;;;;;14.00;72.40;;;13.23;54.78;99758.34;5034590;28;20672;-76
2023/03/22 09:58:55;;;;;;;;;;;14.00;71.40;;;13.20;53.94;99752.63;5046221;28;19924;-76
2023/03/22 10:01:30;;;;;;;;;;;14.00;70.30;;;13.16;54.88;99763.00;5035361;28;19935;-79
2023/03/22 10:04:20;;;;;;;;;;;14.00;71.30;;;13.15;55.17;99759.53;5039194;28;20274;-78
2023/03/22 10:06:49;;;;;;;;;;;14.00;71.30;;;13.15;55.59;99753.38;5040744;28;19921;-76
2023/03/22 10:09:20;;;;;;;;;;;14.00;72.30;;;13.11;55.62;99757.59;5029673;28;19982;-77
2023/03/22 10:11:53;;;;;;;;;;;13.90;72.30;;;13.11;55.72;99754.91;5032705;28;19979;-77
2023/03/22 10:14:30;;;;;;;;;;;13.90;72.40;;;13.10;56.07;99750.63;5040571;28;19925;-77
2023/03/22 10:17:02;;;;;;;;;;;13.90;72.70;;;13.10;55.96;99746.06;5048802;28;19927;-77
2023/03/22 10:19:34;;;;;;;;;;;13.90;72.50;;;13.10;56.17;99738.03;5041144;28;19931;-77
2023/03/22 10:22:02;;;;;;;;;;;13.90;72.70;;;13.13;56.03;99753.63;5037825;28;20288;-77
2023/03/22 10:24:31;;;;;;;;;;;13.90;72.20;;;13.19;55.90;99751.00;5039287;28;19931;-77
2023/03/22 10:26:59;;;;;;;;;;;14.00;72.30;;;13.22;55.88;99748.66;5047308;28;19935;-77
2023/03/22 10:29:29;;;;;;;;;;;14.00;72.30;;;13.26;55.62;99735.59;5044198;28;20008;-77
2023/03/22 10:31:56;;;;;;;;;;;14.00;72.00;;;13.29;55.75;99745.84;5039262;28;20028;-77
2023/03/22 10:34:29;;;;;;;;;;;14.10;72.00;;;13.33;55.95;99747.78;5040377;28;20570;-77
2023/03/22 10:36:59;;;;;;;;;;;14.10;72.60;;;13.37;55.67;99740.88;5040132;28;20416;-76
2023/03/22 10:39:29;;;;;;;;;;;14.20;71.70;;;13.38;54.53;99744.34;5044422;28;19963;-76
2023/03/22 10:41:59;;;;;;;;;;;14.20;70.80;;;13.38;54.76;99739.81;5039440;28;19928;-78
2023/03/22 10:44:28;;;;;;;;;;;14.20;71.10;;;13.43;55.97;99740.94;5041105;28;19931;-76
2023/03/22 10:46:56;;;;;;;;;;;14.30;72.60;;;13.47;55.74;99736.69;5042637;28;19925;-77
2023/03/22 10:49:30;;;;;;;;;;;14.30;72.10;;;13.41;54.81;99743.84;5051127;28;20292;-76
2023/03/22 10:52:00;;;;;;;;;;;14.30;71.10;;;13.46;54.97;99751.13;5053132;28;19921;-77
2023/03/22 10:54:27;;;;;;;;;;;14.30;71.30;;;13.47;54.40;99747.38;5051912;28;20829;-76
2023/03/22 10:56:55;;;;;;;;;;;14.30;70.50;;;13.47;54.57;99748.22;5044675;28;19947;-77
2023/03/22 10:59:46;;;;;;;;;;;14.30;70.40;;;13.52;55.43;99753.66;5044573;28;19920;-76
2023/03/22 11:02:21;;;;;;;;;;;14.30;71.50;;;13.49;54.22;99742.63;5051798;28;20265;-76
2023/03/22 11:04:51;;;;;;;;;;;14.30;70.10;;;13.44;54.34;99748.72;5040972;28;19928;-76
2023/03/22 11:07:30;;;;;;;;;;;14.30;70.50;;;13.46;54.60;99746.59;5031893;28;19929;-76
2023/03/22 11:10:20;;;;;;;;;;;14.30;70.50;;;13.49;55.12;99745.28;5032895;28;19925;-76
2023/03/22 11:12:50;;;;;;;;;;;14.30;71.00;;;13.50;54.53;99752.25;5014986;28;19953;-76
2023/03/22 11:15:24;;;;;;;;;;;14.30;70.50;;;13.50;54.59;99753.06;5032713;28;20364;-76
2023/03/22 11:17:51;;;;;;;;;;;14.30;70.50;;;13.51;54.49;99745.84;5040326;28;19924;-79
2023/03/22 11:20:20;;;;;;;;;;;14.30;70.60;;;13.50;54.92;99738.88;5034723;28;19925;-78
2023/03/22 11:22:48;;;;;;;;;;;14.30;71.10;;;13.53;54.17;99741.06;5032552;28;19928;-77
2023/03/22 11:25:19;;;;;;;;;;;14.30;70.10;;;13.56;55.16;99737.88;5032632;28;20652;-78
2023/03/22 11:27:51;;;;;;;;;;;14.40;71.00;;;13.57;54.47;99745.69;5031885;28;19948;-76
2023/03/22 11:30:20;;;;;;;;;;;14.40;70.30;;;13.55;54.01;99741.63;5033990;28;20007;-76
2023/03/22 11:32:48;;;;;;;;;;;14.40;69.70;;;13.52;54.20;99744.81;5040582;28;20401;-77
2023/03/22 11:35:17;;;;;;;;;;;14.30;70.10;;;13.48;54.42;99743.69;5032424;28;20292;-77
2023/03/22 11:37:47;;;;;;;;;;;14.30;70.30;;;13.47;55.06;99744.72;5031488;28;19936;-76
2023/03/22 11:40:16;;;;;;;;;;;14.30;71.10;;;13.46;54.32;99743.91;5032321;28;19932;-77
2023/03/22 11:42:43;;;;;;;;;;;14.30;70.10;;;13.45;54.90;99746.84;5032183;28;20282;-76